Time;durP1;ratioP1;P1;durP2;ratioP2;P2;SDS_P1;SDS_P2;PMS_P1;PMS_P2;Temp;Humidity;BMP_temperature;BMP_pressure;BME280_temperature;BME280_humidity;BME280_pressure;Samples;Min_cycle;Max_cycle;Signal;HPM_P1;HPM_P2
2021/03/08 00:00:20;;;;;;;13.77;7.78;;;3.50;60.20;;;;;;5018545;28;20073;-76
2021/03/08 00:02:47;;;;;;;14.18;7.65;;;3.70;60.40;;;;;;5013047;28;20471;-77
2021/03/08 00:05:15;;;;;;;13.38;8.40;;;3.70;60.10;;;;;;5011858;28;20618;-77
2021/03/08 00:07:43;;;;;;;12.80;7.78;;;3.50;60.30;;;;;;5020517;28;20061;-78
2021/03/08 00:10:11;;;;;;;15.93;7.72;;;3.60;60.40;;;;;;5011911;28;20054;-78
2021/03/08 00:12:37;;;;;;;12.48;7.68;;;3.60;59.80;;;;;;5018957;28;20045;-78
2021/03/08 00:15:05;;;;;;;12.52;8.02;;;3.40;60.20;;;;;;5012340;28;20148;-77
2021/03/08 00:17:32;;;;;;;13.80;7.72;;;3.40;60.30;;;;;;5010599;28;20072;-77
2021/03/08 00:20:06;;;;;;;11.35;7.10;;;3.30;60.60;;;;;;5010421;28;20054;-76
2021/03/08 00:22:32;;;;;;;13.73;7.57;;;3.40;60.40;;;;;;5011485;28;20115;-77
2021/03/08 00:24:59;;;;;;;11.98;7.80;;;3.80;59.80;;;;;;5010533;28;20103;-78
2021/03/08 00:27:25;;;;;;;12.80;7.25;;;3.50;59.80;;;;;;5008819;28;20089;-78
2021/03/08 00:29:51;;;;;;;12.82;7.60;;;3.60;60.30;;;;;;5016351;28;20562;-77
2021/03/08 00:32:18;;;;;;;11.88;7.65;;;3.40;59.90;;;;;;5011746;28;20084;-77
2021/03/08 00:34:45;;;;;;;10.65;7.25;;;3.40;60.30;;;;;;5009413;28;20169;-78
2021/03/08 00:37:11;;;;;;;13.57;7.90;;;3.10;60.70;;;;;;5025872;28;20466;-77
2021/03/08 00:39:37;;;;;;;14.88;7.43;;;3.00;61.30;;;;;;5008958;28;20162;-76
2021/03/08 00:42:04;;;;;;;16.65;7.55;;;3.20;61.30;;;;;;5012105;28;20045;-76
2021/03/08 00:44:30;;;;;;;15.70;7.72;;;3.10;61.00;;;;;;5013459;28;20089;-78
2021/03/08 00:46:57;;;;;;;13.70;7.78;;;3.00;61.90;;;;;;5009191;28;20084;-78
2021/03/08 00:49:23;;;;;;;12.88;7.40;;;3.20;61.50;;;;;;5018787;28;20109;-79
2021/03/08 00:51:50;;;;;;;11.45;7.70;;;3.10;61.70;;;;;;5012214;28;20057;-79
2021/03/08 00:54:16;;;;;;;12.77;7.97;;;3.00;61.40;;;;;;5012957;28;20158;-78
2021/03/08 00:56:42;;;;;;;11.95;7.25;;;3.20;61.50;;;;;;5017750;28;20053;-79
2021/03/08 00:59:09;;;;;;;11.40;7.43;;;3.50;61.30;;;;;;5008667;28;20054;-78
2021/03/08 01:01:35;;;;;;;11.98;7.25;;;3.10;60.60;;;;;;5011716;28;20150;-78
2021/03/08 01:04:02;;;;;;;13.55;7.65;;;2.80;61.30;;;;;;5012045;28;20041;-78
2021/03/08 01:06:28;;;;;;;13.32;7.30;;;3.00;62.00;;;;;;5017843;28;20049;-77
2021/03/08 01:08:55;;;;;;;13.68;7.93;;;2.70;62.20;;;;;;5010718;28;20056;-78
2021/03/08 01:11:21;;;;;;;11.90;8.05;;;2.80;62.40;;;;;;5008816;28;20058;-78
2021/03/08 01:13:47;;;;;;;14.30;7.85;;;3.00;62.70;;;;;;5011765;28;20139;-78
2021/03/08 01:16:13;;;;;;;14.88;7.47;;;2.70;62.10;;;;;;5039745;28;20480;-78
2021/03/08 01:18:41;;;;;;;13.77;7.43;;;2.60;62.20;;;;;;5012195;28;20060;-77
2021/03/08 01:21:08;;;;;;;10.02;6.68;;;2.60;62.10;;;;;;5016956;28;20528;-78
2021/03/08 01:23:34;;;;;;;12.90;6.88;;;3.00;62.30;;;;;;5012064;28;20099;-78
2021/03/08 01:26:01;;;;;;;13.57;7.28;;;2.80;61.90;;;;;;5010411;28;20516;-77
2021/03/08 01:28:27;;;;;;;15.48;7.35;;;2.80;61.80;;;;;;5010746;28;20112;-77
2021/03/08 01:30:55;;;;;;;13.18;7.65;;;2.90;61.80;;;;;;5007985;28;20128;-76
2021/03/08 01:33:22;;;;;;;13.32;7.63;;;2.90;61.60;;;;;;5026640;28;20085;-76
2021/03/08 01:35:49;;;;;;;10.90;7.43;;;2.90;62.30;;;;;;5007759;28;20058;-76
2021/03/08 01:38:15;;;;;;;15.23;7.22;;;2.80;61.30;;;;;;5012045;28;20168;-76
2021/03/08 01:40:43;;;;;;;13.50;7.35;;;3.10;61.40;;;;;;5040093;28;20099;-79
2021/03/08 01:43:10;;;;;;;13.20;7.53;;;3.20;61.20;;;;;;5010948;28;20046;-78
2021/03/08 01:45:37;;;;;;;11.63;7.38;;;2.50;61.30;;;;;;5007965;28;20053;-76
2021/03/08 01:48:04;;;;;;;17.75;7.40;;;2.70;62.90;;;;;;5010556;28;20046;-77
2021/03/08 01:50:39;;;;;;;15.93;7.40;;;2.60;62.80;;;;;;5011157;28;20085;-76
2021/03/08 01:53:07;;;;;;;13.23;7.28;;;2.50;62.70;;;;;;5011244;28;20120;-77
2021/03/08 01:55:34;;;;;;;11.95;7.20;;;2.70;63.30;;;;;;5010696;28;20107;-77
2021/03/08 01:58:01;;;;;;;11.07;6.97;;;2.40;62.60;;;;;;5014398;28;20049;-77
2021/03/08 02:00:29;;;;;;;13.60;6.93;;;2.40;63.20;;;;;;5012048;28;20576;-77
2021/03/08 02:02:56;;;;;;;13.07;7.72;;;2.30;63.10;;;;;;5011352;28;20108;-77
2021/03/08 02:05:29;;;;;;;15.43;7.18;;;2.60;63.20;;;;;;5012514;28;20056;-77
2021/03/08 02:07:56;;;;;;;12.52;6.95;;;2.40;63.00;;;;;;5013571;28;20053;-77
2021/03/08 02:10:24;;;;;;;12.38;6.93;;;2.70;62.60;;;;;;5023118;28;20058;-77
2021/03/08 02:13:07;;;;;;;13.82;7.15;;;2.70;62.90;;;;;;5016064;28;22644;-78
2021/03/08 02:15:39;;;;;;;19.35;7.00;;;2.80;62.20;;;;;;5032869;28;20069;-77
2021/03/08 02:18:35;;;;;;;14.13;7.20;;;2.80;62.40;;;;;;5014251;28;20045;-77
2021/03/08 02:21:20;;;;;;;14.63;6.80;;;2.60;62.90;;;;;;5006580;28;20965;-77
2021/03/08 02:24:24;;;;;;;11.30;6.68;;;2.70;63.20;;;;;;5016145;28;20140;-78
2021/03/08 02:27:10;;;;;;;10.00;6.47;;;2.40;62.80;;;;;;5013448;28;20081;-77
2021/03/08 02:30:01;;;;;;;13.18;7.18;;;2.60;62.60;;;;;;5012950;28;20478;-77
2021/03/08 02:32:36;;;;;;;13.35;7.43;;;2.70;62.80;;;;;;5018832;28;20412;-78
2021/03/08 02:35:18;;;;;;;11.25;7.10;;;2.60;62.90;;;;;;5028034;28;20051;-79
2021/03/08 02:37:54;;;;;;;11.27;6.47;;;2.60;63.30;;;;;;5012238;28;20073;-78
2021/03/08 02:40:28;;;;;;;9.50;6.45;;;2.40;63.00;;;;;;5016615;28;20096;-78
2021/03/08 02:42:56;;;;;;;12.98;7.03;;;2.60;63.90;;;;;;5020269;28;20120;-78
2021/03/08 02:45:26;;;;;;;14.63;6.75;;;2.80;63.40;;;;;;5015546;28;20115;-77
2021/03/08 02:47:53;;;;;;;;;;;2.40;63.50;;;;;;5025338;28;20053;-78
2021/03/08 02:50:26;;;;;;;11.35;6.70;;;2.20;63.50;;;;;;5018831;28;19975;-78
2021/03/08 02:52:58;;;;;;;10.45;7.00;;;2.50;64.50;;;;;;5031869;28;20054;-78
2021/03/08 02:55:31;;;;;;;12.65;7.60;;;2.20;64.10;;;;;;5059524;28;20053;-79
2021/03/08 02:57:59;;;;;;;13.70;6.78;;;2.40;64.20;;;;;;5030513;28;20038;-78
2021/03/08 03:00:27;;;;;;;11.45;6.75;;;2.50;63.70;;;;;;5022428;28;20085;-79
2021/03/08 03:02:54;;;;;;;11.50;7.25;;;2.50;64.00;;;;;;5055585;28;20041;-79
2021/03/08 03:05:22;;;;;;;13.70;7.40;;;2.20;64.40;;;;;;5016782;28;20061;-78
2021/03/08 03:07:51;;;;;;;13.48;7.20;;;1.80;64.80;;;;;;5019964;28;20594;-79
2021/03/08 03:10:21;;;;;;;11.10;6.72;;;2.10;65.80;;;;;;5026817;28;20132;-78
2021/03/08 03:12:48;;;;;;;12.82;6.75;;;1.80;65.30;;;;;;5030668;28;20425;-79
2021/03/08 03:15:15;;;;;;;9.52;6.32;;;2.00;64.50;;;;;;5026125;28;20053;-77
2021/03/08 03:17:43;;;;;;;12.20;6.85;;;2.50;64.50;;;;;;5025495;28;20065;-78
2021/03/08 03:20:13;;;;;;;14.68;7.50;;;2.20;64.00;;;;;;5024497;28;20391;-78
2021/03/08 03:22:43;;;;;;;14.02;7.38;;;2.20;64.70;;;;;;5043570;28;20096;-77
2021/03/08 03:25:12;;;;;;;12.45;7.20;;;2.40;64.60;;;;;;5022456;28;20046;-77
2021/03/08 03:27:40;;;;;;;10.40;7.30;;;2.30;64.80;;;;;;5023898;28;20119;-76
2021/03/08 03:30:07;;;;;;;11.40;6.20;;;2.40;64.50;;;;;;5017370;28;20375;-77
2021/03/08 03:32:35;;;;;;;12.60;7.13;;;2.50;64.60;;;;;;5027551;28;20045;-77
2021/03/08 03:35:01;;;;;;;13.70;7.32;;;2.40;64.30;;;;;;5023355;28;20135;-77
2021/03/08 03:37:28;;;;;;;12.68;6.72;;;2.30;64.80;;;;;;5016016;28;20432;-77
2021/03/08 03:39:54;;;;;;;10.98;7.07;;;2.00;64.80;;;;;;5025176;28;20069;-77
2021/03/08 03:42:20;;;;;;;13.85;7.82;;;1.90;65.40;;;;;;5052723;28;20081;-76
2021/03/08 03:44:47;;;;;;;13.27;7.57;;;2.10;66.00;;;;;;5022118;28;20100;-79
2021/03/08 03:47:14;;;;;;;11.68;7.28;;;1.80;65.90;;;;;;5022488;28;20062;-78
2021/03/08 03:49:41;;;;;;;12.13;7.38;;;2.10;66.10;;;;;;5022409;28;20052;-77
2021/03/08 03:52:09;;;;;;;13.68;6.90;;;2.20;65.20;;;;;;5021158;28;20084;-75
2021/03/08 03:54:35;;;;;;;15.32;7.55;;;2.00;64.90;;;;;;5055813;28;20053;-78
2021/03/08 03:57:07;;;;;;;12.75;7.60;;;2.20;65.30;;;;;;5029163;28;20084;-78
2021/03/08 03:59:42;;;;;;;16.13;7.60;;;2.00;65.80;;;;;;5021400;28;20045;-78
2021/03/08 04:02:24;;;;;;;16.48;8.00;;;1.90;66.50;;;;;;5022150;28;20069;-76
2021/03/08 04:04:57;;;;;;;14.15;8.25;;;2.00;66.70;;;;;;5021104;28;20049;-77
2021/03/08 04:07:24;;;;;;;13.88;7.82;;;1.90;65.80;;;;;;5025096;28;20162;-77
2021/03/08 04:09:52;;;;;;;13.23;7.47;;;2.00;65.80;;;;;;5048213;28;20057;-78
2021/03/08 04:12:22;;;;;;;13.40;7.22;;;1.90;65.00;;;;;;5019296;28;20049;-78
2021/03/08 04:14:53;;;;;;;12.52;7.60;;;2.10;65.10;;;;;;5022501;28;20100;-78
2021/03/08 04:17:21;;;;;;;18.60;8.18;;;2.00;64.90;;;;;;5021817;28;20054;-78
2021/03/08 04:19:50;;;;;;;15.70;8.35;;;2.00;65.80;;;;;;5022582;28;20064;-77
2021/03/08 04:22:17;;;;;;;16.40;8.00;;;1.70;66.50;;;;;;5025834;28;20046;-76
2021/03/08 04:24:46;;;;;;;17.15;8.23;;;1.70;66.70;;;;;;5020324;28;20095;-78
2021/03/08 04:27:15;;;;;;;14.30;8.68;;;2.00;66.30;;;;;;5026380;28;20147;-77
2021/03/08 04:29:43;;;;;;;18.23;8.50;;;2.00;66.50;;;;;;5014630;28;20057;-77
2021/03/08 04:32:16;;;;;;;17.65;8.18;;;1.50;66.40;;;;;;5027031;28;20136;-77
2021/03/08 04:34:43;;;;;;;16.90;9.50;;;2.00;67.00;;;;;;5028960;28;20056;-79
2021/03/08 04:37:15;;;;;;;16.20;8.18;;;2.20;66.00;;;;;;5023320;28;20049;-78
2021/03/08 04:39:43;;;;;;;13.38;8.35;;;1.80;66.00;;;;;;5023573;28;20041;-77
2021/03/08 04:42:13;;;;;;;15.98;8.70;;;1.90;66.80;;;;;;5020696;28;20073;-77
2021/03/08 04:44:41;;;;;;;14.00;8.57;;;1.50;66.60;;;;;;5054384;28;20077;-77
2021/03/08 04:47:08;;;;;;;14.48;8.10;;;1.50;66.80;;;;;;5049541;28;20148;-78
2021/03/08 04:49:36;;;;;;;17.95;8.18;;;1.60;66.70;;;;;;5020469;28;20389;-78
2021/03/08 04:52:06;;;;;;;16.10;8.32;;;1.40;66.70;;;;;;5039404;28;20136;-79
2021/03/08 04:54:34;;;;;;;17.58;8.05;;;1.80;67.60;;;;;;5018313;28;20049;-77
2021/03/08 04:57:01;;;;;;;16.70;8.50;;;1.60;67.30;;;;;;5018940;28;20081;-78
2021/03/08 04:59:27;;;;;;;18.50;8.07;;;1.60;67.10;;;;;;5021156;28;20107;-77
2021/03/08 05:01:55;;;;;;;15.70;8.25;;;1.60;67.00;;;;;;5016097;28;20078;-78
2021/03/08 05:04:24;;;;;;;13.48;8.15;;;1.40;67.10;;;;;;5023806;28;20045;-77
2021/03/08 05:06:52;;;;;;;15.60;8.15;;;1.60;67.50;;;;;;5017507;28;20080;-77
2021/03/08 05:09:20;;;;;;;13.25;7.07;;;1.70;67.60;;;;;;5020963;28;20065;-77
2021/03/08 05:11:47;;;;;;;14.95;8.10;;;1.70;68.10;;;;;;5024257;28;20104;-76
2021/03/08 05:14:18;;;;;;;13.60;7.85;;;1.50;68.30;;;;;;5017489;28;20465;-78
2021/03/08 05:16:46;;;;;;;13.05;8.27;;;1.50;68.20;;;;;;5022119;28;20484;-77
2021/03/08 05:19:14;;;;;;;15.82;7.50;;;1.60;68.10;;;;;;5051427;28;20119;-77
2021/03/08 05:21:41;;;;;;;13.88;8.20;;;1.60;67.80;;;;;;5015670;28;20073;-77
2021/03/08 05:24:08;;;;;;;14.95;8.68;;;1.90;67.20;;;;;;5013441;28;20092;-77
2021/03/08 05:26:36;;;;;;;14.65;7.75;;;2.00;67.40;;;;;;5023750;28;20085;-77
2021/03/08 05:29:05;;;;;;;20.05;8.95;;;1.90;67.30;;;;;;5019202;28;20045;-78
2021/03/08 05:31:34;;;;;;;15.23;8.55;;;1.90;67.00;;;;;;5022675;28;20073;-77
2021/03/08 05:34:03;;;;;;;14.07;8.57;;;1.90;67.40;;;;;;5023665;28;20069;-77
2021/03/08 05:36:36;;;;;;;19.38;9.57;;;1.70;66.80;;;;;;5029429;28;20054;-77
2021/03/08 05:39:04;;;;;;;15.88;9.00;;;1.80;67.10;;;;;;5025058;28;20431;-76
2021/03/08 05:41:34;;;;;;;16.88;9.00;;;1.50;67.30;;;;;;5034544;28;20088;-76
2021/03/08 05:44:06;;;;;;;16.65;8.50;;;1.60;67.10;;;;;;5026271;28;20041;-76
2021/03/08 05:47:01;;;;;;;14.63;9.02;;;1.50;67.70;;;;;;5023565;28;20429;-76
2021/03/08 05:49:33;;;;;;;16.33;8.90;;;1.70;68.10;;;;;;5022419;28;20063;-76
2021/03/08 05:52:19;;;;;;;18.25;8.88;;;1.50;69.00;;;;;;5025829;28;20436;-77
2021/03/08 05:55:04;;;;;;;15.48;9.15;;;1.50;68.30;;;;;;5020973;28;20053;-76
2021/03/08 05:57:56;;;;;;;19.08;9.43;;;1.60;67.70;;;;;;5029548;28;20065;-77
2021/03/08 06:00:36;;;;;;;16.23;8.48;;;1.60;67.20;;;;;;5025680;28;20543;-76
2021/03/08 06:03:50;;;;;;;14.82;9.20;;;1.50;67.40;;;;;;5025458;28;20050;-78
2021/03/08 06:06:23;;;;;;;21.77;11.35;;;1.70;67.20;;;;;;5025731;28;20050;-77
2021/03/08 06:08:49;;;;;;;18.13;10.23;;;1.50;67.50;;;;;;5028082;28;20057;-77
2021/03/08 06:11:18;;;;;;;21.15;9.32;;;1.40;68.70;;;;;;5026783;28;20080;-76
2021/03/08 06:13:46;;;;;;;16.77;8.68;;;1.70;67.60;;;;;;5054909;28;20501;-79
2021/03/08 06:16:20;;;;;;;18.52;9.43;;;1.70;66.90;;;;;;5021722;28;20084;-77
2021/03/08 06:18:52;;;;;;;18.67;9.18;;;2.10;66.70;;;;;;5020086;28;20045;-77
2021/03/08 06:21:19;;;;;;;20.65;8.90;;;3.20;65.40;;;;;;5057984;28;20041;-77
2021/03/08 06:23:46;;;;;;;16.08;9.77;;;2.90;64.70;;;;;;5023634;28;20141;-78
2021/03/08 06:26:13;;;;;;;16.75;8.75;;;2.70;64.10;;;;;;5019569;28;20444;-77
2021/03/08 06:28:41;;;;;;;18.00;9.15;;;2.40;65.10;;;;;;5026877;28;20126;-77
2021/03/08 06:31:08;;;;;;;18.67;10.07;;;2.00;65.40;;;;;;5017586;28;20057;-78
2021/03/08 06:33:51;;;;;;;20.55;10.13;;;1.90;66.90;;;;;;5032410;28;20099;-77
2021/03/08 06:36:19;;;;;;;17.48;9.25;;;1.90;67.90;;;;;;5024232;28;20049;-77
2021/03/08 06:38:46;;;;;;;18.70;9.75;;;1.90;67.90;;;;;;5025419;28;20472;-77
2021/03/08 06:41:12;;;;;;;25.38;9.32;;;2.40;67.00;;;;;;5025417;28;20086;-78
2021/03/08 06:43:39;;;;;;;16.42;9.48;;;2.10;66.00;;;;;;5018544;28;20045;-78
2021/03/08 06:46:06;;;;;;;23.80;9.90;;;2.50;66.30;;;;;;5025835;28;20162;-78
2021/03/08 06:48:34;;;;;;;16.92;9.70;;;2.10;66.00;;;;;;5025978;28;20136;-76
2021/03/08 06:51:27;;;;;;;21.65;9.40;;;2.00;66.70;;;;;;5019057;28;20053;-76
2021/03/08 06:53:53;;;;;;;18.20;9.55;;;2.20;67.00;;;;;;5017635;28;20136;-77
2021/03/08 06:56:22;;;;;;;24.77;10.10;;;2.40;67.10;;;;;;5027604;28;20045;-76
2021/03/08 06:59:15;;;;;;;21.35;11.10;;;2.70;66.00;;;;;;5029343;28;20092;-77
2021/03/08 07:01:44;;;;;;;21.20;10.48;;;2.70;65.80;;;;;;5022390;28;20072;-78
2021/03/08 07:04:17;;;;;;;23.77;10.38;;;2.40;65.00;;;;;;5021919;28;20081;-78
2021/03/08 07:06:56;;;;;;;22.35;11.20;;;2.70;66.00;;;;;;5018821;28;20058;-78
2021/03/08 07:09:23;;;;;;;19.00;9.85;;;2.70;65.90;;;;;;5022757;28;20069;-76
2021/03/08 07:12:05;;;;;;;18.13;10.30;;;2.70;65.80;;;;;;5019423;28;20050;-78
2021/03/08 07:14:32;;;;;;;17.38;10.10;;;2.20;65.70;;;;;;5034345;28;20355;-77
2021/03/08 07:17:00;;;;;;;20.30;10.55;;;2.60;65.90;;;;;;5024566;28;20701;-77
2021/03/08 07:19:26;;;;;;;22.40;11.30;;;2.80;66.00;;;;;;5050369;28;20507;-78
2021/03/08 07:21:55;;;;;;;24.92;10.90;;;2.70;65.30;;;;;;5062723;28;20142;-79
2021/03/08 07:24:21;;;;;;;21.48;10.65;;;2.70;65.60;;;;;;5022499;28;20053;-79
2021/03/08 07:26:54;;;;;;;17.52;9.88;;;2.50;65.70;;;;;;5016342;28;20076;-78
2021/03/08 07:29:23;;;;;;;23.25;10.45;;;2.80;66.00;;;;;;5050862;28;20064;-77
2021/03/08 07:31:51;;;;;;;24.85;11.35;;;2.60;66.20;;;;;;5020429;28;20049;-78
2021/03/08 07:34:46;;;;;;;21.73;11.18;;;2.70;65.60;;;;;;5048853;28;20074;-79
2021/03/08 07:37:13;;;;;;;15.93;9.90;;;2.60;65.60;;;;;;5026750;28;20049;-79
2021/03/08 07:39:53;;;;;;;18.15;10.57;;;2.90;66.30;;;;;;5046489;28;20053;-76
2021/03/08 07:42:19;;;;;;;27.42;10.52;;;2.70;66.00;;;;;;5037315;28;20050;-77
2021/03/08 07:44:51;;;;;;;25.48;10.20;;;2.60;65.80;;;;;;5024252;28;20046;-79
2021/03/08 07:47:19;;;;;;;18.40;9.93;;;2.90;65.40;;;;;;5023074;28;20496;-78
2021/03/08 07:49:46;;;;;;;16.25;9.55;;;3.10;64.70;;;;;;5021057;28;20107;-78
2021/03/08 07:52:15;;;;;;;17.63;9.05;;;3.10;64.10;;;;;;5019804;28;20061;-77
2021/03/08 07:54:50;;;;;;;16.58;9.40;;;3.60;63.70;;;;;;5023377;28;20113;-78
2021/03/08 07:57:17;;;;;;;14.13;8.65;;;4.00;62.10;;;;;;5018197;28;20089;-77
2021/03/08 07:59:44;;;;;;;16.10;8.40;;;4.30;60.80;;;;;;5019473;28;20057;-77
2021/03/08 08:02:10;;;;;;;19.20;9.02;;;4.90;60.40;;;;;;5019655;28;20117;-77
2021/03/08 08:04:50;;;;;;;16.98;9.00;;;5.50;57.90;;;;;;5025796;28;20418;-78
2021/03/08 08:07:19;;;;;;;13.75;7.75;;;5.30;58.10;;;;;;5019170;28;20053;-78
2021/03/08 08:09:47;;;;;;;47.67;13.30;;;5.50;57.90;;;;;;5022050;28;20049;-79
2021/03/08 08:12:21;;;;;;;17.07;9.17;;;5.60;57.70;;;;;;5023492;28;20052;-77
2021/03/08 08:14:51;;;;;;;17.48;8.82;;;5.60;57.30;;;;;;5029147;28;20300;-79
2021/03/08 08:17:21;;;;;;;14.05;9.30;;;5.80;57.20;;;;;;5023793;28;20057;-78
2021/03/08 08:19:50;;;;;;;18.17;8.52;;;6.00;56.40;;;;;;5048331;28;20045;-78
2021/03/08 08:22:20;;;;;;;15.10;8.63;;;6.00;56.30;;;;;;5020913;28;20073;-78
2021/03/08 08:24:48;;;;;;;14.55;8.65;;;6.60;55.70;;;;;;5052691;28;20201;-78
2021/03/08 08:27:18;;;;;;;13.50;7.88;;;6.70;54.90;;;;;;5013822;28;20108;-75
2021/03/08 08:29:46;;;;;;;15.73;8.85;;;6.90;54.40;;;;;;5014487;28;20133;-78
2021/03/08 08:32:13;;;;;;;17.23;8.20;;;7.10;54.40;;;;;;5056628;28;20056;-77
2021/03/08 08:34:44;;;;;;;15.98;9.10;;;7.30;54.10;;;;;;5017370;28;20060;-79
2021/03/08 08:37:19;;;;;;;18.08;8.85;;;7.00;53.20;;;;;;5023645;28;20054;-77
2021/03/08 08:39:51;;;;;;;17.75;8.52;;;6.40;54.80;;;;;;5013407;28;20140;-78
2021/03/08 08:42:26;;;;;;;14.00;7.88;;;7.30;54.60;;;;;;5021019;28;20061;-79
2021/03/08 08:44:54;;;;;;;18.33;8.52;;;9.30;50.80;;;;;;5021800;28;20107;-80
2021/03/08 08:47:24;;;;;;;17.42;7.35;;;9.90;47.80;;;;;;5014194;28;20132;-79
2021/03/08 08:49:58;;;;;;;14.25;8.35;;;9.60;47.80;;;;;;5022284;28;20489;-79
2021/03/08 08:52:54;;;;;;;13.70;7.50;;;11.10;46.50;;;;;;5027508;28;20089;-79
2021/03/08 08:55:36;;;;;;;13.43;7.35;;;12.20;42.90;;;;;;5017546;28;20065;-78
2021/03/08 08:58:28;;;;;;;13.25;8.00;;;12.00;42.80;;;;;;5037235;28;20042;-79
2021/03/08 09:03:59;;;;;;;16.25;8.07;;;10.00;44.90;;;;;;5020651;28;20401;-78
2021/03/08 09:06:51;;;;;;;17.37;9.00;;;9.80;47.30;;;;;;5023535;28;20397;-80
2021/03/08 09:09:18;;;;;;;14.95;8.15;;;10.20;45.90;;;;;;5023981;28;20052;-79
2021/03/08 09:11:54;;;;;;;15.90;8.52;;;10.30;44.30;;;;;;5016982;28;20108;-77
2021/03/08 09:14:29;;;;;;;14.23;8.80;;;9.60;47.20;;;;;;5022984;28;20132;-78
2021/03/08 09:17:25;;;;;;;19.70;8.38;;;9.00;47.80;;;;;;5043764;28;20060;-80
2021/03/08 09:20:14;;;;;;;16.08;8.57;;;8.20;49.10;;;;;;5034572;28;20069;-77
2021/03/08 09:23:03;;;;;;;14.68;8.50;;;7.40;51.00;;;;;;5022828;28;20195;-77
2021/03/08 09:25:32;;;;;;;15.35;7.57;;;7.50;51.20;;;;;;5016130;28;20117;-82
2021/03/08 09:27:58;;;;;;;13.18;7.85;;;7.80;51.00;;;;;;5017388;28;20077;-81
2021/03/08 09:30:47;;;;;;;16.70;7.55;;;8.60;49.80;;;;;;5018465;28;20045;-78
2021/03/08 09:33:19;;;;;;;14.18;8.48;;;8.50;49.10;;;;;;5014949;28;20049;-80
2021/03/08 09:35:55;;;;;;;11.65;7.38;;;9.20;48.60;;;;;;5021207;28;20531;-80
2021/03/08 09:38:26;;;;;;;15.52;8.07;;;10.20;45.90;;;;;;5022250;28;20469;-79
2021/03/08 09:40:55;;;;;;;14.38;7.72;;;9.20;47.10;;;;;;5015696;28;20394;-78
2021/03/08 09:43:30;;;;;;;17.88;9.07;;;8.20;49.20;;;;;;5014419;28;20050;-79
2021/03/08 09:46:10;;;;;;;18.58;8.23;;;8.00;50.40;;;;;;5018733;28;21138;-77
2021/03/08 09:48:43;;;;;;;13.80;8.00;;;8.20;50.50;;;;;;5016682;28;20121;-75
2021/03/08 09:51:13;;;;;;;19.10;8.32;;;9.20;49.20;;;;;;5014683;28;20053;-74
2021/03/08 09:53:43;;;;;;;16.42;7.90;;;10.00;46.50;;;;;;5029130;28;20096;-74
2021/03/08 09:56:18;;;;;;;13.18;7.32;;;10.20;46.10;;;;;;5026126;28;20076;-74
2021/03/08 09:58:44;;;;;;;16.45;7.95;;;9.40;47.70;;;;;;5033095;28;20135;-76
2021/03/08 10:01:18;;;;;;;21.30;8.63;;;8.40;49.10;;;;;;5031447;28;20147;-73
2021/03/08 10:03:48;;;;;;;13.93;7.80;;;8.50;50.10;;;;;;5028562;28;20447;-75
2021/03/08 10:06:33;;;;;;;21.63;8.02;;;8.80;50.00;;;;;;5031542;28;20053;-74
2021/03/08 10:09:23;;;;;;;17.15;8.27;;;8.10;50.30;;;;;;5035274;28;20067;-74
2021/03/08 10:12:00;;;;;;;14.15;7.50;;;8.40;50.30;;;;;;5032633;28;20057;-74
2021/03/08 10:14:28;;;;;;;14.45;7.75;;;9.10;49.50;;;;;;5032752;28;20044;-74
2021/03/08 10:17:09;;;;;;;15.30;8.18;;;10.10;46.40;;;;;;5028136;28;20166;-75
2021/03/08 10:19:38;;;;;;;16.10;7.78;;;9.50;47.70;;;;;;5032841;28;20056;-74
2021/03/08 10:22:06;;;;;;;14.50;7.45;;;9.20;48.60;;;;;;5038121;28;20142;-74
2021/03/08 10:24:38;;;;;;;17.98;8.55;;;10.40;46.10;;;;;;5033996;28;20057;-75
2021/03/08 10:27:13;;;;;;;16.33;8.13;;;11.60;43.70;;;;;;5035102;28;20049;-75
2021/03/08 10:29:41;;;;;;;22.65;7.13;;;10.50;45.20;;;;;;5036307;28;20052;-75
2021/03/08 10:32:09;;;;;;;15.75;7.32;;;12.50;43.10;;;;;;5033467;28;20421;-75
2021/03/08 10:34:36;;;;;;;15.75;8.13;;;13.90;41.10;;;;;;5037479;28;20041;-75
2021/03/08 10:37:19;;;;;;;15.45;7.60;;;11.90;42.40;;;;;;5036320;28;20076;-74
2021/03/08 10:39:50;;;;;;;11.77;6.85;;;10.50;45.50;;;;;;5035181;28;20123;-76
2021/03/08 10:42:20;;;;;;;15.05;7.10;;;10.50;45.60;;;;;;5032616;28;20140;-75
2021/03/08 10:44:47;;;;;;;14.90;7.43;;;12.30;42.80;;;;;;5030182;28;20044;-77
2021/03/08 10:47:16;;;;;;;11.18;6.30;;;13.30;41.20;;;;;;5033899;28;20473;-74
2021/03/08 10:49:53;;;;;;;13.73;7.57;;;12.90;41.50;;;;;;5027707;28;20160;-73
2021/03/08 10:52:21;;;;;;;12.13;7.15;;;12.30;42.00;;;;;;5032602;28;20530;-74
2021/03/08 10:54:47;;;;;;;14.85;7.55;;;11.30;43.60;;;;;;5040017;28;20462;-74
2021/03/08 10:57:15;;;;;;;11.50;6.57;;;11.20;44.10;;;;;;5032793;28;20083;-72
2021/03/08 10:59:53;;;;;;;16.38;7.55;;;12.00;43.10;;;;;;5036002;28;20488;-74
2021/03/08 11:02:21;;;;;;;13.43;6.68;;;11.80;42.30;;;;;;5032908;28;20053;-71
2021/03/08 11:04:52;;;;;;;13.25;6.85;;;12.00;43.40;;;;;;5032642;28;20056;-74
2021/03/08 11:07:32;;;;;;;12.30;7.07;;;13.10;41.60;;;;;;5035905;28;20073;-73
2021/03/08 11:09:59;;;;;;;18.27;8.18;;;12.30;42.70;;;;;;5034540;28;20056;-72
2021/03/08 11:12:25;;;;;;;11.18;7.13;;;12.00;43.90;;;;;;5036882;28;20575;-72
2021/03/08 11:14:57;;;;;;;17.52;7.03;;;11.60;43.40;;;;;;5027253;28;20102;-74
2021/03/08 11:17:43;;;;;;;15.80;7.72;;;11.60;43.40;;;;;;5033834;28;20049;-74
2021/03/08 11:20:19;;;;;;;11.77;6.97;;;11.80;43.10;;;;;;5032729;28;20053;-73
2021/03/08 11:22:59;;;;;;;9.80;6.53;;;11.40;44.10;;;;;;5030463;28;20752;-72
2021/03/08 11:25:29;;;;;;;14.52;7.28;;;11.10;44.90;;;;;;5038161;28;20050;-73
2021/03/08 11:28:01;;;;;;;15.27;7.57;;;11.70;43.70;;;;;;5066635;28;20049;-73
2021/03/08 11:30:28;;;;;;;14.80;7.70;;;11.80;43.70;;;;;;5030721;28;20218;-71
2021/03/08 11:32:57;;;;;;;13.32;6.30;;;12.60;42.90;;;;;;5032625;28;20076;-73
2021/03/08 11:35:28;;;;;;;12.35;6.07;;;12.90;41.90;;;;;;5033900;28;20061;-72
2021/03/08 11:38:02;;;;;;;12.23;5.57;;;13.50;41.60;;;;;;5027710;28;20081;-71
2021/03/08 11:40:29;;;;;;;10.10;5.28;;;13.50;40.40;;;;;;5031384;28;20479;-73
2021/03/08 11:42:57;;;;;;;9.55;5.10;;;14.00;40.50;;;;;;5032159;28;20125;-73
2021/03/08 11:45:24;;;;;;;12.50;6.35;;;14.00;39.20;;;;;;5034736;28;20049;-73
2021/03/08 11:47:54;;;;;;;8.70;5.38;;;13.10;40.10;;;;;;5033778;28;20136;-72
2021/03/08 11:50:23;;;;;;;8.55;5.50;;;12.10;41.70;;;;;;5037785;28;20128;-74
2021/03/08 11:52:50;;;;;;;9.32;5.70;;;12.00;42.00;;;;;;5065979;28;20052;-73
2021/03/08 11:55:18;;;;;;;9.13;5.18;;;11.50;43.00;;;;;;5031905;28;20120;-74
2021/03/08 11:57:45;;;;;;;10.57;5.68;;;11.30;42.80;;;;;;5035030;28;20484;-73
2021/03/08 12:00:17;;;;;;;11.48;5.50;;;12.10;42.20;;;;;;5060219;28;20052;-71
2021/03/08 12:02:45;;;;;;;10.48;5.03;;;12.00;41.90;;;;;;5023787;28;20050;-72
2021/03/08 12:05:12;;;;;;;10.18;5.43;;;12.30;41.40;;;;;;5031857;28;20100;-72
2021/03/08 12:07:39;;;;;;;7.05;4.47;;;12.80;41.20;;;;;;5035598;28;20077;-71
2021/03/08 12:10:07;;;;;;;7.90;4.85;;;12.90;40.90;;;;;;5057106;28;20520;-71
2021/03/08 12:12:34;;;;;;;8.73;4.70;;;12.70;40.90;;;;;;5034274;28;20102;-73
2021/03/08 12:15:05;;;;;;;8.80;4.80;;;12.60;41.10;;;;;;5033568;28;20425;-72
2021/03/08 12:17:31;;;;;;;10.77;5.63;;;12.50;40.60;;;;;;5034443;28;20136;-73
2021/03/08 12:20:00;;;;;;;12.52;6.35;;;12.80;40.30;;;;;;5034423;28;21089;-72
2021/03/08 12:22:27;;;;;;;13.05;6.55;;;12.40;41.50;;;;;;5034894;28;20089;-73
2021/03/08 12:24:53;;;;;;;44.85;16.40;;;11.90;42.40;;;;;;5028681;28;20072;-72
2021/03/08 12:27:20;;;;;;;11.10;7.00;;;11.80;43.50;;;;;;5034529;28;20084;-71
2021/03/08 12:29:47;;;;;;;21.20;10.70;;;12.40;41.70;;;;;;5034948;28;20057;-71
2021/03/08 12:32:13;;;;;;;16.17;7.45;;;12.60;41.60;;;;;;5031244;28;20520;-73
2021/03/08 12:34:40;;;;;;;57.22;24.88;;;12.60;41.10;;;;;;5018082;28;20053;-73
2021/03/08 12:37:06;;;;;;;10.70;6.22;;;12.80;42.00;;;;;;5020956;28;20069;-76
2021/03/08 12:39:32;;;;;;;27.35;12.30;;;12.50;41.10;;;;;;5015943;28;20049;-76
2021/03/08 12:41:59;;;;;;;8.30;5.18;;;12.00;42.30;;;;;;5018039;28;20081;-76
2021/03/08 12:44:26;;;;;;;35.53;16.38;;;12.40;41.00;;;;;;5021981;28;20418;-76
2021/03/08 12:46:52;;;;;;;7.82;4.85;;;13.20;41.80;;;;;;5022507;28;20049;-76
2021/03/08 12:49:19;;;;;;;9.70;4.88;;;13.10;39.60;;;;;;5019570;28;20073;-75
2021/03/08 12:51:49;;;;;;;10.30;4.72;;;13.30;39.70;;;;;;5050898;28;20879;-75
2021/03/08 12:54:15;;;;;;;9.15;5.38;;;13.70;39.00;;;;;;5021302;28;20397;-76
2021/03/08 12:56:42;;;;;;;10.38;4.90;;;13.80;38.90;;;;;;5038666;28;20493;-75
2021/03/08 12:59:08;;;;;;;11.05;5.07;;;13.20;39.90;;;;;;5017687;28;20099;-75
2021/03/08 13:01:34;;;;;;;22.60;9.60;;;13.10;39.80;;;;;;5019805;28;20478;-75
2021/03/08 13:04:01;;;;;;;7.45;4.88;;;12.40;41.20;;;;;;5021405;28;20065;-76
2021/03/08 13:06:27;;;;;;;12.73;5.60;;;12.10;40.70;;;;;;5019763;28;20037;-76